首页
METAR-TAF:

METAR-TAF

机场 :

賓漢頓, 紐約州, 美国

纬度: 42-12-28N, 经度: 075-58-53W, 海拔: 496米

当前天气观测

该预报发布于33分钟前的20:53 UTC
风速9节,风向
温度 23°C
湿度 57%
气压 1011 hPa
能見度: 16.1公里
多云层高于8500英尺
多云层高于11000英尺

METAR: KBGM 182053Z 19009KT 10SM BKN085 BKN110 23/14 A2986 RMK AO2 SLP106 T02280139 58023

时间: 17:26 (21:26 UTC)

预报

该预报发布于3小时和43分钟前的17:43 UTC
预报有效从18日的 18点(UTC)到 19日的 18点(UTC)
风速9节,风向西南,有时为16节阵风
能見度: 10公里
多云层高于10000英尺
从 19日的 0100点(UTC)
风速8节,风向
能見度: 10公里
多云层高于8000英尺
短暂存在
从 19日的 04点(UTC)到 19日的 06点(UTC)
能見度: 9.7公里
多云层高于3000英尺
小阵雨
从 19日的 0900点(UTC)
风速6节,风向西南
能見度: 10公里
多云层高于3000英尺
从 19日的 1100点(UTC)
风速5节,风向西
能見度: 10公里
多云层高于1500英尺
从 19日的 1400点(UTC)
风速5节,风向西
能見度: 10公里
多云层高于7000英尺
从 19日的 1600点(UTC)
风速6节,风向西,有时为11节阵风
能見度: 10公里
散云层高于15000英尺

TAF: KBGM 181743Z 1818/1918 23009G16KT P6SM BKN100 FM190100 19008KT P6SM BKN080 TEMPO 1904/1906 6SM -SHRA BKN030 FM190900 23006KT P6SM BKN030 FM191100 26005KT P6SM BKN015 FM191400 26005KT P6SM BKN070 FM191600 26006G11KT P6SM SCT150

超过4000个机场的气象观测和天气预报(METAR&TAF报告)。

可查询的气象台以黄色和红色小点在地图上表示。

将鼠标移到小点上方,可查看气象台名称。

然后点击查看天气观测和预报。

如需切换地图:点击带黑十字的绿色按钮放大地图;点击带横线的绿色按钮缩小地图;或者点击绿色箭头查看邻近地区的地图。


METAR-TAF: